Terminal Aerodrome Forecast
Issued by NWS Amarillo, TX

Home | Current Version | Previous Version | Text Only | Print | Product List | Glossary On
Versions: 1 2 3 4 5 6 7 8 9 10 11 12 13 14 15 16
287
FTUS44 KAMA 302332
TAFDHT
TAF
KDHT 302332Z 3100/3124 07007KT P6SM FEW020 OVC100
     FM310600 VRB03KT 3SM BR SCT010 BKN100 OVC200
     FM311500 14006KT P6SM -SHRA SCT020 BKN060 OVC200=

USA.gov is the U.S. government's official web portal to all federal, state and local government web resources and services.